sensor_id;sensor_type;location;lat;lon;timestamp;temperature;humidity
20698;DHT22;10508;50.956;4.640;2023-02-13T00:00:18;4.00;99.90
20698;DHT22;10508;50.956;4.640;2023-02-13T00:02:44;4.00;99.90
20698;DHT22;10508;50.956;4.640;2023-02-13T00:05:09;4.00;99.90
20698;DHT22;10508;50.956;4.640;2023-02-13T00:07:35;3.90;99.90
20698;DHT22;10508;50.956;4.640;2023-02-13T00:10:01;3.90;99.90
20698;DHT22;10508;50.956;4.640;2023-02-13T00:12:26;3.80;99.90
20698;DHT22;10508;50.956;4.640;2023-02-13T00:14:53;3.80;99.90
20698;DHT22;10508;50.956;4.640;2023-02-13T00:17:19;3.80;99.90
20698;DHT22;10508;50.956;4.640;2023-02-13T00:19:44;3.80;99.90
20698;DHT22;10508;50.956;4.640;2023-02-13T00:22:10;3.70;99.90
20698;DHT22;10508;50.956;4.640;2023-02-13T00:24:36;3.70;99.90
20698;DHT22;10508;50.956;4.640;2023-02-13T00:27:02;3.60;99.90
20698;DHT22;10508;50.956;4.640;2023-02-13T00:29:27;3.60;99.90
20698;DHT22;10508;50.956;4.640;2023-02-13T00:32:02;3.60;99.90
20698;DHT22;10508;50.956;4.640;2023-02-13T00:34:28;3.50;99.90
20698;DHT22;10508;50.956;4.640;2023-02-13T00:36:53;3.50;99.90
20698;DHT22;10508;50.956;4.640;2023-02-13T00:39:19;3.50;99.90
20698;DHT22;10508;50.956;4.640;2023-02-13T00:41:44;3.50;99.90
20698;DHT22;10508;50.956;4.640;2023-02-13T00:44:10;3.40;99.90
20698;DHT22;10508;50.956;4.640;2023-02-13T00:46:54;3.30;99.90
20698;DHT22;10508;50.956;4.640;2023-02-13T00:49:20;3.30;99.90
20698;DHT22;10508;50.956;4.640;2023-02-13T00:51:45;3.30;99.90
20698;DHT22;10508;50.956;4.640;2023-02-13T00:54:11;3.30;99.90
20698;DHT22;10508;50.956;4.640;2023-02-13T00:56:37;3.30;99.90
20698;DHT22;10508;50.956;4.640;2023-02-13T00:59:02;3.20;99.90
20698;DHT22;10508;50.956;4.640;2023-02-13T01:01:28;3.10;99.90
20698;DHT22;10508;50.956;4.640;2023-02-13T01:03:54;3.00;99.90
20698;DHT22;10508;50.956;4.640;2023-02-13T01:06:19;2.90;99.90
20698;DHT22;10508;50.956;4.640;2023-02-13T01:08:45;3.00;99.90
20698;DHT22;10508;50.956;4.640;2023-02-13T01:11:11;3.00;99.90
20698;DHT22;10508;50.956;4.640;2023-02-13T01:13:36;3.00;99.90
20698;DHT22;10508;50.956;4.640;2023-02-13T01:16:02;3.00;99.90
20698;DHT22;10508;50.956;4.640;2023-02-13T01:18:28;3.00;99.90
20698;DHT22;10508;50.956;4.640;2023-02-13T01:20:59;3.00;99.90
20698;DHT22;10508;50.956;4.640;2023-02-13T01:23:28;2.90;99.90
20698;DHT22;10508;50.956;4.640;2023-02-13T01:25:53;2.90;99.90
20698;DHT22;10508;50.956;4.640;2023-02-13T01:28:19;2.90;99.90
20698;DHT22;10508;50.956;4.640;2023-02-13T01:30:45;2.90;99.90
20698;DHT22;10508;50.956;4.640;2023-02-13T01:33:16;2.80;99.90
20698;DHT22;10508;50.956;4.640;2023-02-13T01:35:42;2.70;99.90
20698;DHT22;10508;50.956;4.640;2023-02-13T01:38:07;2.60;99.90
20698;DHT22;10508;50.956;4.640;2023-02-13T01:40:33;2.60;99.90
20698;DHT22;10508;50.956;4.640;2023-02-13T01:42:59;2.60;99.90
20698;DHT22;10508;50.956;4.640;2023-02-13T01:45:29;2.60;99.90
20698;DHT22;10508;50.956;4.640;2023-02-13T01:48:20;2.60;99.90
20698;DHT22;10508;50.956;4.640;2023-02-13T01:50:49;2.50;99.90
20698;DHT22;10508;50.956;4.640;2023-02-13T01:55:51;2.40;99.90
20698;DHT22;10508;50.956;4.640;2023-02-13T01:58:20;2.40;99.90
20698;DHT22;10508;50.956;4.640;2023-02-13T02:00:47;2.30;99.90
20698;DHT22;10508;50.956;4.640;2023-02-13T02:05:58;2.30;99.90
20698;DHT22;10508;50.956;4.640;2023-02-13T02:08:25;2.40;99.90
20698;DHT22;10508;50.956;4.640;2023-02-13T02:10:51;2.40;99.90
20698;DHT22;10508;50.956;4.640;2023-02-13T02:13:19;2.30;99.90
20698;DHT22;10508;50.956;4.640;2023-02-13T02:15:46;2.40;99.90
20698;DHT22;10508;50.956;4.640;2023-02-13T02:18:20;2.30;99.90
20698;DHT22;10508;50.956;4.640;2023-02-13T02:48:31;2.20;99.90
20698;DHT22;10508;50.956;4.640;2023-02-13T02:51:18;2.10;99.90
20698;DHT22;10508;50.956;4.640;2023-02-13T02:57:04;2.00;99.90
20698;DHT22;10508;50.956;4.640;2023-02-13T02:59:32;1.90;99.90
20698;DHT22;10508;50.956;4.640;2023-02-13T03:02:19;1.90;99.90
20698;DHT22;10508;50.956;4.640;2023-02-13T03:05:14;1.90;99.90
20698;DHT22;10508;50.956;4.640;2023-02-13T03:08:01;2.00;99.90
20698;DHT22;10508;50.956;4.640;2023-02-13T03:10:30;2.00;99.90
20698;DHT22;10508;50.956;4.640;2023-02-13T03:13:41;2.00;99.90
20698;DHT22;10508;50.956;4.640;2023-02-13T03:16:16;1.90;99.90
20698;DHT22;10508;50.956;4.640;2023-02-13T03:19:01;1.90;99.90
20698;DHT22;10508;50.956;4.640;2023-02-13T03:22:05;1.90;99.90
20698;DHT22;10508;50.956;4.640;2023-02-13T03:27:58;1.80;99.90
20698;DHT22;10508;50.956;4.640;2023-02-13T03:45:07;2.00;99.90
20698;DHT22;10508;50.956;4.640;2023-02-13T03:47:56;2.00;99.90
20698;DHT22;10508;50.956;4.640;2023-02-13T03:50:24;2.10;99.90
20698;DHT22;10508;50.956;4.640;2023-02-13T03:53:07;2.30;99.90
20698;DHT22;10508;50.956;4.640;2023-02-13T03:55:37;2.30;99.90
20698;DHT22;10508;50.956;4.640;2023-02-13T03:58:28;2.30;99.90
20698;DHT22;10508;50.956;4.640;2023-02-13T04:01:18;2.30;99.90
20698;DHT22;10508;50.956;4.640;2023-02-13T04:06:41;2.20;99.90
20698;DHT22;10508;50.956;4.640;2023-02-13T04:09:10;2.30;99.90
20698;DHT22;10508;50.956;4.640;2023-02-13T04:14:33;2.30;99.90
20698;DHT22;10508;50.956;4.640;2023-02-13T04:17:07;2.40;99.90
20698;DHT22;10508;50.956;4.640;2023-02-13T04:19:47;2.40;99.90
20698;DHT22;10508;50.956;4.640;2023-02-13T04:22:13;2.30;99.90
20698;DHT22;10508;50.956;4.640;2023-02-13T04:24:38;2.40;99.90
20698;DHT22;10508;50.956;4.640;2023-02-13T04:27:04;2.40;99.90
20698;DHT22;10508;50.956;4.640;2023-02-13T04:29:30;2.30;99.90
20698;DHT22;10508;50.956;4.640;2023-02-13T04:31:55;2.30;99.90
20698;DHT22;10508;50.956;4.640;2023-02-13T04:34:21;2.30;99.90
20698;DHT22;10508;50.956;4.640;2023-02-13T04:36:47;2.30;99.90
20698;DHT22;10508;50.956;4.640;2023-02-13T04:39:12;2.10;99.90
20698;DHT22;10508;50.956;4.640;2023-02-13T04:41:38;2.20;99.90
20698;DHT22;10508;50.956;4.640;2023-02-13T04:44:04;2.20;99.90
20698;DHT22;10508;50.956;4.640;2023-02-13T04:46:30;2.00;99.90
20698;DHT22;10508;50.956;4.640;2023-02-13T04:48:55;1.70;99.90
20698;DHT22;10508;50.956;4.640;2023-02-13T04:51:21;1.90;99.90
20698;DHT22;10508;50.956;4.640;2023-02-13T04:53:46;2.00;99.90
20698;DHT22;10508;50.956;4.640;2023-02-13T04:56:12;1.90;99.90
20698;DHT22;10508;50.956;4.640;2023-02-13T04:58:38;1.90;99.90
20698;DHT22;10508;50.956;4.640;2023-02-13T05:01:11;1.90;99.90
20698;DHT22;10508;50.956;4.640;2023-02-13T05:03:37;1.90;99.90
20698;DHT22;10508;50.956;4.640;2023-02-13T05:06:03;1.90;99.90
20698;DHT22;10508;50.956;4.640;2023-02-13T05:08:28;1.90;99.90
20698;DHT22;10508;50.956;4.640;2023-02-13T05:10:54;1.80;99.90
20698;DHT22;10508;50.956;4.640;2023-02-13T05:13:22;1.90;99.90
20698;DHT22;10508;50.956;4.640;2023-02-13T05:15:48;1.80;99.90
20698;DHT22;10508;50.956;4.640;2023-02-13T05:18:13;1.80;99.90
20698;DHT22;10508;50.956;4.640;2023-02-13T05:20:40;1.80;99.90
20698;DHT22;10508;50.956;4.640;2023-02-13T05:23:12;1.80;99.90
20698;DHT22;10508;50.956;4.640;2023-02-13T05:25:47;1.80;99.90
20698;DHT22;10508;50.956;4.640;2023-02-13T05:28:14;1.70;99.90
20698;DHT22;10508;50.956;4.640;2023-02-13T05:31:01;1.60;99.90
20698;DHT22;10508;50.956;4.640;2023-02-13T05:33:27;1.50;99.90
20698;DHT22;10508;50.956;4.640;2023-02-13T05:35:53;1.60;99.90
20698;DHT22;10508;50.956;4.640;2023-02-13T05:38:19;2.80;99.90
20698;DHT22;10508;50.956;4.640;2023-02-13T05:40:44;1.40;99.90
20698;DHT22;10508;50.956;4.640;2023-02-13T05:43:10;1.60;99.90
20698;DHT22;10508;50.956;4.640;2023-02-13T05:45:36;1.70;99.90
20698;DHT22;10508;50.956;4.640;2023-02-13T05:48:01;1.00;99.90
20698;DHT22;10508;50.956;4.640;2023-02-13T05:50:27;1.30;99.90
20698;DHT22;10508;50.956;4.640;2023-02-13T05:52:53;1.50;99.90
20698;DHT22;10508;50.956;4.640;2023-02-13T05:55:18;1.60;99.90
20698;DHT22;10508;50.956;4.640;2023-02-13T05:57:44;1.40;99.90
20698;DHT22;10508;50.956;4.640;2023-02-13T06:00:10;1.30;99.90
20698;DHT22;10508;50.956;4.640;2023-02-13T06:02:36;1.20;99.90
20698;DHT22;10508;50.956;4.640;2023-02-13T06:05:01;1.10;99.90
20698;DHT22;10508;50.956;4.640;2023-02-13T06:07:27;1.30;99.90
20698;DHT22;10508;50.956;4.640;2023-02-13T06:09:53;1.30;99.90
20698;DHT22;10508;50.956;4.640;2023-02-13T06:12:18;1.20;99.90
20698;DHT22;10508;50.956;4.640;2023-02-13T06:14:44;1.10;99.90
20698;DHT22;10508;50.956;4.640;2023-02-13T06:17:09;1.10;99.90
20698;DHT22;10508;50.956;4.640;2023-02-13T06:19:35;1.00;99.90
20698;DHT22;10508;50.956;4.640;2023-02-13T06:22:01;1.10;99.90
20698;DHT22;10508;50.956;4.640;2023-02-13T06:24:26;1.20;99.90
20698;DHT22;10508;50.956;4.640;2023-02-13T06:26:52;1.20;99.90
20698;DHT22;10508;50.956;4.640;2023-02-13T06:29:18;1.10;99.90
20698;DHT22;10508;50.956;4.640;2023-02-13T06:31:43;1.50;99.90
20698;DHT22;10508;50.956;4.640;2023-02-13T06:34:09;1.10;99.90
20698;DHT22;10508;50.956;4.640;2023-02-13T06:36:34;1.00;99.90
20698;DHT22;10508;50.956;4.640;2023-02-13T06:39:02;1.10;99.90
20698;DHT22;10508;50.956;4.640;2023-02-13T06:41:28;1.20;99.90
20698;DHT22;10508;50.956;4.640;2023-02-13T06:43:54;1.20;99.90
20698;DHT22;10508;50.956;4.640;2023-02-13T06:46:20;1.10;99.90
20698;DHT22;10508;50.956;4.640;2023-02-13T06:48:45;1.00;99.90
20698;DHT22;10508;50.956;4.640;2023-02-13T06:51:11;1.00;99.90
20698;DHT22;10508;50.956;4.640;2023-02-13T06:53:36;0.90;99.90
20698;DHT22;10508;50.956;4.640;2023-02-13T06:56:04;1.00;99.90
20698;DHT22;10508;50.956;4.640;2023-02-13T06:58:32;1.10;99.90
20698;DHT22;10508;50.956;4.640;2023-02-13T07:00:59;1.00;99.90
20698;DHT22;10508;50.956;4.640;2023-02-13T07:03:24;0.90;99.90
20698;DHT22;10508;50.956;4.640;2023-02-13T07:05:50;0.80;99.90
20698;DHT22;10508;50.956;4.640;2023-02-13T07:08:16;1.10;99.90
20698;DHT22;10508;50.956;4.640;2023-02-13T07:10:42;0.90;99.90
20698;DHT22;10508;50.956;4.640;2023-02-13T07:13:09;1.00;99.90
20698;DHT22;10508;50.956;4.640;2023-02-13T07:15:36;1.10;99.90
20698;DHT22;10508;50.956;4.640;2023-02-13T07:18:02;1.00;99.90
20698;DHT22;10508;50.956;4.640;2023-02-13T07:20:28;1.00;99.90
20698;DHT22;10508;50.956;4.640;2023-02-13T07:22:58;1.00;99.90
20698;DHT22;10508;50.956;4.640;2023-02-13T07:25:24;1.00;99.90
20698;DHT22;10508;50.956;4.640;2023-02-13T07:27:50;1.00;99.90
20698;DHT22;10508;50.956;4.640;2023-02-13T07:30:16;1.50;99.90
20698;DHT22;10508;50.956;4.640;2023-02-13T07:32:42;1.80;99.90
20698;DHT22;10508;50.956;4.640;2023-02-13T07:35:07;1.40;99.90
20698;DHT22;10508;50.956;4.640;2023-02-13T07:37:33;1.70;99.90
20698;DHT22;10508;50.956;4.640;2023-02-13T07:39:58;1.50;99.90
20698;DHT22;10508;50.956;4.640;2023-02-13T07:42:24;1.50;99.90
20698;DHT22;10508;50.956;4.640;2023-02-13T07:44:50;1.70;99.90
20698;DHT22;10508;50.956;4.640;2023-02-13T07:47:15;1.80;99.90
20698;DHT22;10508;50.956;4.640;2023-02-13T07:49:41;1.70;99.90
20698;DHT22;10508;50.956;4.640;2023-02-13T07:52:07;1.80;99.90
20698;DHT22;10508;50.956;4.640;2023-02-13T07:54:33;1.80;99.90
20698;DHT22;10508;50.956;4.640;2023-02-13T07:56:59;1.80;99.90
20698;DHT22;10508;50.956;4.640;2023-02-13T07:59:24;1.80;99.90
20698;DHT22;10508;50.956;4.640;2023-02-13T08:01:50;1.90;99.90
20698;DHT22;10508;50.956;4.640;2023-02-13T08:04:16;2.10;99.90
20698;DHT22;10508;50.956;4.640;2023-02-13T08:06:42;2.10;99.90
20698;DHT22;10508;50.956;4.640;2023-02-13T08:09:17;2.00;99.90
20698;DHT22;10508;50.956;4.640;2023-02-13T08:12:03;2.20;99.90
20698;DHT22;10508;50.956;4.640;2023-02-13T08:14:29;1.10;99.90
20698;DHT22;10508;50.956;4.640;2023-02-13T08:16:57;2.50;99.90
20698;DHT22;10508;50.956;4.640;2023-02-13T08:19:23;2.40;99.90
20698;DHT22;10508;50.956;4.640;2023-02-13T08:21:49;2.40;99.90
20698;DHT22;10508;50.956;4.640;2023-02-13T08:24:14;2.50;99.90
20698;DHT22;10508;50.956;4.640;2023-02-13T08:26:40;2.60;99.90
20698;DHT22;10508;50.956;4.640;2023-02-13T08:29:06;2.70;99.90
20698;DHT22;10508;50.956;4.640;2023-02-13T08:31:32;2.90;99.90
20698;DHT22;10508;50.956;4.640;2023-02-13T08:33:57;2.80;99.90
20698;DHT22;10508;50.956;4.640;2023-02-13T08:36:23;2.90;99.90
20698;DHT22;10508;50.956;4.640;2023-02-13T08:38:49;3.00;99.90
20698;DHT22;10508;50.956;4.640;2023-02-13T08:41:15;3.10;99.90
20698;DHT22;10508;50.956;4.640;2023-02-13T08:43:47;3.30;99.90
20698;DHT22;10508;50.956;4.640;2023-02-13T08:46:12;3.40;99.90
20698;DHT22;10508;50.956;4.640;2023-02-13T08:48:38;3.60;99.90
20698;DHT22;10508;50.956;4.640;2023-02-13T08:51:05;4.00;99.90
20698;DHT22;10508;50.956;4.640;2023-02-13T08:53:32;3.90;99.90
20698;DHT22;10508;50.956;4.640;2023-02-13T08:55:58;4.00;99.90
20698;DHT22;10508;50.956;4.640;2023-02-13T08:58:24;4.20;99.90
20698;DHT22;10508;50.956;4.640;2023-02-13T09:00:49;4.30;99.90
20698;DHT22;10508;50.956;4.640;2023-02-13T09:03:15;4.60;99.90
20698;DHT22;10508;50.956;4.640;2023-02-13T09:05:41;4.80;99.90
20698;DHT22;10508;50.956;4.640;2023-02-13T09:08:08;5.00;99.90
20698;DHT22;10508;50.956;4.640;2023-02-13T09:10:36;5.20;99.90
20698;DHT22;10508;50.956;4.640;2023-02-13T09:13:02;5.50;99.90
20698;DHT22;10508;50.956;4.640;2023-02-13T09:15:28;5.50;99.90
20698;DHT22;10508;50.956;4.640;2023-02-13T09:17:53;5.80;99.90
20698;DHT22;10508;50.956;4.640;2023-02-13T09:20:19;6.00;99.90
20698;DHT22;10508;50.956;4.640;2023-02-13T09:22:45;6.20;99.90
20698;DHT22;10508;50.956;4.640;2023-02-13T09:25:10;6.20;99.90
20698;DHT22;10508;50.956;4.640;2023-02-13T09:27:36;6.40;99.90
20698;DHT22;10508;50.956;4.640;2023-02-13T09:30:07;6.50;99.90
20698;DHT22;10508;50.956;4.640;2023-02-13T09:32:34;6.70;99.90
20698;DHT22;10508;50.956;4.640;2023-02-13T09:35:02;6.80;99.90
20698;DHT22;10508;50.956;4.640;2023-02-13T09:37:28;7.10;99.90
20698;DHT22;10508;50.956;4.640;2023-02-13T09:39:54;7.50;99.90
20698;DHT22;10508;50.956;4.640;2023-02-13T09:42:22;7.90;99.90
20698;DHT22;10508;50.956;4.640;2023-02-13T09:44:54;8.50;99.90
20698;DHT22;10508;50.956;4.640;2023-02-13T09:47:38;8.90;99.90
20698;DHT22;10508;50.956;4.640;2023-02-13T09:50:22;9.40;99.90
20698;DHT22;10508;50.956;4.640;2023-02-13T09:52:51;10.00;99.90
20698;DHT22;10508;50.956;4.640;2023-02-13T09:55:34;10.50;99.90
20698;DHT22;10508;50.956;4.640;2023-02-13T09:58:08;10.50;99.90
20698;DHT22;10508;50.956;4.640;2023-02-13T10:00:47;11.80;99.90
20698;DHT22;10508;50.956;4.640;2023-02-13T10:03:43;12.50;99.90
20698;DHT22;10508;50.956;4.640;2023-02-13T10:06:32;13.80;99.90
20698;DHT22;10508;50.956;4.640;2023-02-13T10:09:13;15.90;99.50
20698;DHT22;10508;50.956;4.640;2023-02-13T10:17:35;16.20;94.60
20698;DHT22;10508;50.956;4.640;2023-02-13T10:23:27;16.90;93.40
20698;DHT22;10508;50.956;4.640;2023-02-13T10:26:00;17.70;92.00
20698;DHT22;10508;50.956;4.640;2023-02-13T10:28:53;17.70;91.30
20698;DHT22;10508;50.956;4.640;2023-02-13T10:31:42;17.70;91.80
20698;DHT22;10508;50.956;4.640;2023-02-13T10:34:13;17.80;91.40
20698;DHT22;10508;50.956;4.640;2023-02-13T10:36:44;17.90;91.10
20698;DHT22;10508;50.956;4.640;2023-02-13T10:39:30;18.00;91.00
20698;DHT22;10508;50.956;4.640;2023-02-13T10:44:54;18.40;90.40
20698;DHT22;10508;50.956;4.640;2023-02-13T10:50:26;18.70;88.80
20698;DHT22;10508;50.956;4.640;2023-02-13T10:53:27;18.60;89.30
20698;DHT22;10508;50.956;4.640;2023-02-13T10:56:21;18.80;88.30
20698;DHT22;10508;50.956;4.640;2023-02-13T11:04:18;19.60;88.40
20698;DHT22;10508;50.956;4.640;2023-02-13T11:09:15;19.60;84.70
20698;DHT22;10508;50.956;4.640;2023-02-13T11:11:42;19.60;85.60
20698;DHT22;10508;50.956;4.640;2023-02-13T11:14:25;19.90;86.20
20698;DHT22;10508;50.956;4.640;2023-02-13T11:16:58;21.00;82.50
20698;DHT22;10508;50.956;4.640;2023-02-13T11:22:11;20.90;82.60
20698;DHT22;10508;50.956;4.640;2023-02-13T11:24:49;20.80;81.80
20698;DHT22;10508;50.956;4.640;2023-02-13T11:27:15;22.90;78.20
20698;DHT22;10508;50.956;4.640;2023-02-13T11:29:59;22.10;76.50
20698;DHT22;10508;50.956;4.640;2023-02-13T11:32:31;21.40;77.80
20698;DHT22;10508;50.956;4.640;2023-02-13T11:34:57;20.90;80.50
20698;DHT22;10508;50.956;4.640;2023-02-13T11:37:40;21.20;79.50
20698;DHT22;10508;50.956;4.640;2023-02-13T11:40:29;21.10;79.20
20698;DHT22;10508;50.956;4.640;2023-02-13T11:42:56;21.20;79.60
20698;DHT22;10508;50.956;4.640;2023-02-13T11:45:23;21.00;80.00
20698;DHT22;10508;50.956;4.640;2023-02-13T11:47:51;21.00;79.50
20698;DHT22;10508;50.956;4.640;2023-02-13T11:53:00;20.50;79.70
20698;DHT22;10508;50.956;4.640;2023-02-13T11:55:34;20.50;79.10
20698;DHT22;10508;50.956;4.640;2023-02-13T11:58:02;20.70;78.60
20698;DHT22;10508;50.956;4.640;2023-02-13T12:00:39;20.30;80.00
20698;DHT22;10508;50.956;4.640;2023-02-13T12:06:09;19.30;80.70
20698;DHT22;10508;50.956;4.640;2023-02-13T12:08:38;18.50;82.70
20698;DHT22;10508;50.956;4.640;2023-02-13T12:14:20;17.60;86.30
20698;DHT22;10508;50.956;4.640;2023-02-13T12:16:49;17.50;87.60
20698;DHT22;10508;50.956;4.640;2023-02-13T12:19:21;17.80;86.80
20698;DHT22;10508;50.956;4.640;2023-02-13T12:24:46;18.00;86.20
20698;DHT22;10508;50.956;4.640;2023-02-13T12:30:03;18.40;85.30
20698;DHT22;10508;50.956;4.640;2023-02-13T12:46:29;19.00;84.90
20698;DHT22;10508;50.956;4.640;2023-02-13T12:49:13;19.10;83.80
20698;DHT22;10508;50.956;4.640;2023-02-13T12:57:20;18.80;84.80
20698;DHT22;10508;50.956;4.640;2023-02-13T12:59:58;18.70;85.00
20698;DHT22;10508;50.956;4.640;2023-02-13T13:11:27;19.10;82.80
20698;DHT22;10508;50.956;4.640;2023-02-13T13:14:23;19.20;84.00
20698;DHT22;10508;50.956;4.640;2023-02-13T13:20:14;18.90;84.00
20698;DHT22;10508;50.956;4.640;2023-02-13T13:22:49;19.10;84.70
20698;DHT22;10508;50.956;4.640;2023-02-13T13:28:38;18.80;84.10
20698;DHT22;10508;50.956;4.640;2023-02-13T13:31:07;18.80;84.20
20698;DHT22;10508;50.956;4.640;2023-02-13T13:33:33;18.30;82.90
20698;DHT22;10508;50.956;4.640;2023-02-13T13:36:06;17.90;84.50
20698;DHT22;10508;50.956;4.640;2023-02-13T13:38:50;17.70;86.60
20698;DHT22;10508;50.956;4.640;2023-02-13T13:52:20;17.40;87.10
20698;DHT22;10508;50.956;4.640;2023-02-13T13:54:46;17.20;87.50
20698;DHT22;10508;50.956;4.640;2023-02-13T13:57:17;17.10;88.20
20698;DHT22;10508;50.956;4.640;2023-02-13T14:07:42;17.30;86.30
20698;DHT22;10508;50.956;4.640;2023-02-13T14:13:01;16.40;89.80
20698;DHT22;10508;50.956;4.640;2023-02-13T14:23:16;15.90;90.80
20698;DHT22;10508;50.956;4.640;2023-02-13T14:25:43;15.70;91.10
20698;DHT22;10508;50.956;4.640;2023-02-13T14:28:25;15.60;91.40
20698;DHT22;10508;50.956;4.640;2023-02-13T14:31:04;15.50;91.60
20698;DHT22;10508;50.956;4.640;2023-02-13T14:33:31;15.40;91.70
20698;DHT22;10508;50.956;4.640;2023-02-13T14:36:01;15.30;92.40
20698;DHT22;10508;50.956;4.640;2023-02-13T14:38:27;15.40;92.30
20698;DHT22;10508;50.956;4.640;2023-02-13T14:40:54;15.10;92.40
20698;DHT22;10508;50.956;4.640;2023-02-13T14:43:41;15.00;92.30
20698;DHT22;10508;50.956;4.640;2023-02-13T14:46:34;14.80;92.20
20698;DHT22;10508;50.956;4.640;2023-02-13T14:51:49;14.80;92.60
20698;DHT22;10508;50.956;4.640;2023-02-13T14:54:26;14.60;92.80
20698;DHT22;10508;50.956;4.640;2023-02-13T14:57:44;14.70;92.90
20698;DHT22;10508;50.956;4.640;2023-02-13T14:59:54;14.60;93.00
20698;DHT22;10508;50.956;4.640;2023-02-13T15:02:26;14.60;93.10
20698;DHT22;10508;50.956;4.640;2023-02-13T15:05:06;14.60;93.10
20698;DHT22;10508;50.956;4.640;2023-02-13T15:07:37;14.60;93.40
20698;DHT22;10508;50.956;4.640;2023-02-13T15:10:32;14.50;93.60
20698;DHT22;10508;50.956;4.640;2023-02-13T15:13:01;14.30;94.20
20698;DHT22;10508;50.956;4.640;2023-02-13T15:15:34;14.30;94.40
20698;DHT22;10508;50.956;4.640;2023-02-13T15:18:08;14.30;94.50
20698;DHT22;10508;50.956;4.640;2023-02-13T15:20:37;14.30;94.40
20698;DHT22;10508;50.956;4.640;2023-02-13T15:23:04;14.20;94.70
20698;DHT22;10508;50.956;4.640;2023-02-13T15:25:38;14.20;94.90
20698;DHT22;10508;50.956;4.640;2023-02-13T15:28:06;14.30;94.20
20698;DHT22;10508;50.956;4.640;2023-02-13T15:30:37;14.30;94.30
20698;DHT22;10508;50.956;4.640;2023-02-13T15:33:17;14.30;93.80
20698;DHT22;10508;50.956;4.640;2023-02-13T15:35:43;14.40;93.40
20698;DHT22;10508;50.956;4.640;2023-02-13T15:38:29;14.60;93.50
20698;DHT22;10508;50.956;4.640;2023-02-13T15:41:05;14.40;93.60
20698;DHT22;10508;50.956;4.640;2023-02-13T15:43:33;14.40;93.70
20698;DHT22;10508;50.956;4.640;2023-02-13T15:46:05;14.40;93.70
20698;DHT22;10508;50.956;4.640;2023-02-13T15:48:33;14.40;93.80
20698;DHT22;10508;50.956;4.640;2023-02-13T15:51:00;14.40;93.80
20698;DHT22;10508;50.956;4.640;2023-02-13T15:53:26;14.20;93.70
20698;DHT22;10508;50.956;4.640;2023-02-13T15:55:57;14.20;93.70
20698;DHT22;10508;50.956;4.640;2023-02-13T15:58:27;14.20;93.20
20698;DHT22;10508;50.956;4.640;2023-02-13T16:00:54;14.10;93.30
20698;DHT22;10508;50.956;4.640;2023-02-13T16:03:22;14.00;93.30
20698;DHT22;10508;50.956;4.640;2023-02-13T16:05:50;14.00;93.30
20698;DHT22;10508;50.956;4.640;2023-02-13T16:08:32;13.90;93.40
20698;DHT22;10508;50.956;4.640;2023-02-13T16:11:22;13.90;93.40
20698;DHT22;10508;50.956;4.640;2023-02-13T16:16:59;13.80;93.70
20698;DHT22;10508;50.956;4.640;2023-02-13T16:27:47;13.50;93.70
20698;DHT22;10508;50.956;4.640;2023-02-13T16:32:48;13.50;93.80
20698;DHT22;10508;50.956;4.640;2023-02-13T16:35:28;13.30;94.10
20698;DHT22;10508;50.956;4.640;2023-02-13T16:37:57;13.30;94.60
20698;DHT22;10508;50.956;4.640;2023-02-13T16:40:40;13.20;94.90
20698;DHT22;10508;50.956;4.640;2023-02-13T16:43:34;13.10;95.20
20698;DHT22;10508;50.956;4.640;2023-02-13T16:57:38;12.50;96.40
20698;DHT22;10508;50.956;4.640;2023-02-13T17:02:35;12.10;96.40
20698;DHT22;10508;50.956;4.640;2023-02-13T17:07:39;11.80;97.00
20698;DHT22;10508;50.956;4.640;2023-02-13T17:12:48;11.90;96.80
20698;DHT22;10508;50.956;4.640;2023-02-13T17:15:17;11.60;97.30
20698;DHT22;10508;50.956;4.640;2023-02-13T17:17:43;11.20;97.70
20698;DHT22;10508;50.956;4.640;2023-02-13T17:20:24;10.70;98.60
20698;DHT22;10508;50.956;4.640;2023-02-13T17:22:53;10.60;98.90
20698;DHT22;10508;50.956;4.640;2023-02-13T17:25:25;10.50;99.60
20698;DHT22;10508;50.956;4.640;2023-02-13T17:27:54;10.40;99.30
20698;DHT22;10508;50.956;4.640;2023-02-13T17:30:25;10.30;99.60
20698;DHT22;10508;50.956;4.640;2023-02-13T17:32:58;10.60;99.80
20698;DHT22;10508;50.956;4.640;2023-02-13T17:35:24;10.40;99.90
20698;DHT22;10508;50.956;4.640;2023-02-13T17:37:50;10.20;99.80
20698;DHT22;10508;50.956;4.640;2023-02-13T17:40:18;10.00;99.90
20698;DHT22;10508;50.956;4.640;2023-02-13T17:42:46;9.90;99.90
20698;DHT22;10508;50.956;4.640;2023-02-13T17:45:16;9.80;99.90
20698;DHT22;10508;50.956;4.640;2023-02-13T17:47:42;9.60;99.90
20698;DHT22;10508;50.956;4.640;2023-02-13T17:50:28;9.60;99.90
20698;DHT22;10508;50.956;4.640;2023-02-13T17:52:55;9.50;99.90
20698;DHT22;10508;50.956;4.640;2023-02-13T17:55:24;9.40;99.90
20698;DHT22;10508;50.956;4.640;2023-02-13T17:57:51;9.20;99.90
20698;DHT22;10508;50.956;4.640;2023-02-13T18:00:19;9.20;99.90
20698;DHT22;10508;50.956;4.640;2023-02-13T18:02:46;9.30;99.90
20698;DHT22;10508;50.956;4.640;2023-02-13T18:05:14;9.20;99.90
20698;DHT22;10508;50.956;4.640;2023-02-13T18:07:40;9.00;99.90
20698;DHT22;10508;50.956;4.640;2023-02-13T18:10:12;8.90;99.90
20698;DHT22;10508;50.956;4.640;2023-02-13T18:12:38;8.90;99.90
20698;DHT22;10508;50.956;4.640;2023-02-13T18:15:05;8.80;99.90
20698;DHT22;10508;50.956;4.640;2023-02-13T18:17:31;8.60;99.90
20698;DHT22;10508;50.956;4.640;2023-02-13T18:19:56;8.70;99.90
20698;DHT22;10508;50.956;4.640;2023-02-13T18:22:22;8.80;99.90
20698;DHT22;10508;50.956;4.640;2023-02-13T18:24:48;8.80;99.90
20698;DHT22;10508;50.956;4.640;2023-02-13T18:27:32;8.80;99.90
20698;DHT22;10508;50.956;4.640;2023-02-13T18:29:58;8.90;99.90
20698;DHT22;10508;50.956;4.640;2023-02-13T18:32:24;8.90;99.90
20698;DHT22;10508;50.956;4.640;2023-02-13T18:34:49;8.70;99.90
20698;DHT22;10508;50.956;4.640;2023-02-13T18:37:16;8.40;99.90
20698;DHT22;10508;50.956;4.640;2023-02-13T18:39:42;8.40;99.90
20698;DHT22;10508;50.956;4.640;2023-02-13T18:42:08;8.40;99.90
20698;DHT22;10508;50.956;4.640;2023-02-13T18:44:34;8.20;99.90
20698;DHT22;10508;50.956;4.640;2023-02-13T18:47:00;8.00;99.90
20698;DHT22;10508;50.956;4.640;2023-02-13T18:49:25;8.10;99.90
20698;DHT22;10508;50.956;4.640;2023-02-13T18:51:51;8.20;99.90
20698;DHT22;10508;50.956;4.640;2023-02-13T18:54:17;8.10;99.90
20698;DHT22;10508;50.956;4.640;2023-02-13T18:56:43;8.20;99.90
20698;DHT22;10508;50.956;4.640;2023-02-13T18:59:10;8.10;99.90
20698;DHT22;10508;50.956;4.640;2023-02-13T19:01:36;8.00;99.90
20698;DHT22;10508;50.956;4.640;2023-02-13T19:04:02;7.70;99.90
20698;DHT22;10508;50.956;4.640;2023-02-13T19:06:29;7.70;99.90
20698;DHT22;10508;50.956;4.640;2023-02-13T19:08:55;7.60;99.90
20698;DHT22;10508;50.956;4.640;2023-02-13T19:11:22;7.70;99.90
20698;DHT22;10508;50.956;4.640;2023-02-13T19:13:53;7.70;99.90
20698;DHT22;10508;50.956;4.640;2023-02-13T19:16:23;7.70;99.90
20698;DHT22;10508;50.956;4.640;2023-02-13T19:18:52;7.50;99.90